Wheeler Observed Data For Previous 48 Hours

Caption
Day and Hour Reservoir Elevation (behind dam)* Tailwater Elevation (below dam)* Average Hourly Discharge*
1/15/2019 1 AM CST 550.93 507.20 113,889
1/15/2019 2 AM CST 550.92 507.19 113,802
1/15/2019 3 AM CST 550.91 507.16 113,905
1/15/2019 4 AM CST 550.90 507.15 113,858
1/15/2019 5 AM CST 550.90 507.12 113,778
1/15/2019 6 AM CST 550.90 507.09 113,819
1/15/2019 7 AM CST 550.89 507.10 113,918
1/15/2019 8 AM CST 550.89 507.09 113,608
1/15/2019 9 AM CST 550.89 507.03 113,844
1/15/2019 10 AM CST 550.88 507.02 113,980
1/15/2019 11 AM CST 550.87 506.98 113,828
1/15/2019 12 PM CST 550.87 506.99 113,807
1/15/2019 1 PM CST 550.87 506.96 113,782
1/15/2019 2 PM CST 550.86 506.92 113,996
1/15/2019 3 PM CST 550.86 506.90 113,831
1/15/2019 4 PM CST 550.86 506.88 113,682
1/15/2019 5 PM CST 550.85 506.84 113,930
1/15/2019 6 PM CST 550.85 506.81 113,724
1/15/2019 7 PM CST 550.85 506.79 113,674
1/15/2019 8 PM CST 550.83 506.79 113,619
1/15/2019 9 PM CST 550.83 506.75 113,828
1/15/2019 10 PM CST 550.83 506.72 113,717
1/15/2019 11 PM CST 550.83 506.74 113,760
1/16/2019 12 AM CST 550.82 506.70 113,947
1/16/2019 1 AM CST 550.80 506.67 113,549
1/16/2019 2 AM CST 550.79 506.64 113,502
1/16/2019 3 AM CST 550.79 506.66 113,675
1/16/2019 4 AM CST 550.78 506.64 113,458
1/16/2019 5 AM CST 550.78 506.59 113,347
1/16/2019 6 AM CST 550.77 506.63 113,403
1/16/2019 7 AM CST 550.77 506.54 113,494
1/16/2019 8 AM CST 550.76 506.57 113,642
1/16/2019 9 AM CST 550.76 506.58 113,965
1/16/2019 10 AM CST 550.78 506.07 105,843
1/16/2019 11 AM CST 550.77 506.54 107,316
1/16/2019 12 PM CST 550.76 506.61 113,906
1/16/2019 1 PM CST 550.76 506.29 106,273
1/16/2019 2 PM CST 550.77 506.57 109,041
1/16/2019 3 PM CST 550.78 506.54 110,930
1/16/2019 4 PM CST 550.75 506.61 115,169
1/16/2019 5 PM CST 550.75 506.61 115,469
1/16/2019 6 PM CST 550.73 506.64 115,216
1/16/2019 7 PM CST 550.73 506.67 115,210
1/16/2019 8 PM CST 550.74 506.77 115,162
1/16/2019 9 PM CST 550.72 506.73 115,292
1/16/2019 10 PM CST 550.69 506.77 115,298
1/16/2019 11 PM CST 550.70 506.79 115,219
1/17/2019 12 AM CST 550.70 506.81 115,530
1/17/2019 1 AM CST 550.69 506.84 115,387
1/17/2019 2 AM CST 550.71 506.88 115,427
1/17/2019 3 AM CST 550.69 506.93 115,515
1/17/2019 4 AM CST 550.68 506.95 115,821
1/17/2019 5 AM CST 550.68 506.94 115,131
1/17/2019 6 AM CST 550.68 507.04 115,437
1/17/2019 7 AM CST 550.68 507.07 115,662
1/17/2019 8 AM CST 550.65 507.09 115,419
1/17/2019 9 AM CST 550.68 506.80 112,014
1/17/2019 10 AM CST 550.64 507.16 109,671
1/17/2019 11 AM CST 550.69 507.18 115,583
1/17/2019 12 PM CST 550.66 507.13 115,629
1/17/2019 1 PM CST 550.66 507.18 115,554
1/17/2019 2 PM CST 550.66 507.20 115,687
1/17/2019 3 PM CST 550.64 507.17 115,643
1/17/2019 4 PM CST 550.63 507.13 115,607
1/17/2019 5 PM CST 550.61 507.21 115,742
1/17/2019 6 PM CST 550.60 507.17 115,480
1/17/2019 7 PM CST 550.58 507.18 115,467
1/17/2019 8 PM CST 550.57 507.16 115,468
1/17/2019 9 PM CST 550.56 507.21 115,509
1/17/2019 10 PM CST 550.57 507.18 115,348

Elevations are in feet above sea level. Discharges are in cubic feet per second and are reported at the end of the hour.